Time;durP1;ratioP1;P1;durP2;ratioP2;P2;SDS_P1;SDS_P2;PMS_P1;PMS_P2;Temp;Humidity;BMP_temperature;BMP_pressure;BME280_temperature;BME280_humidity;BME280_pressure;Samples;Min_cycle;Max_cycle;Signal;HPM_P1;HPM_P2
2023/01/20 00:00:36;;;;;;;11.60;5.20;;;;;;;15.61;82.75;100161.75;108118;1288;21995;-65
2023/01/20 00:03:02;;;;;;;16.50;6.30;;;;;;;15.58;82.04;100158.35;108137;1288;23608;-69
2023/01/20 00:05:27;;;;;;;14.30;5.30;;;;;;;15.55;81.67;100158.98;108113;1288;22022;-63
2023/01/20 00:07:53;;;;;;;13.90;5.50;;;;;;;15.47;81.50;100157.66;108004;1289;21992;-64
2023/01/20 00:10:18;;;;;;;16.30;5.00;;;;;;;15.42;81.68;100161.91;107989;1289;22001;-70
2023/01/20 00:12:44;;;;;;;16.60;5.20;;;;;;;15.43;81.79;100161.38;107989;1288;21990;-63
2023/01/20 00:15:10;;;;;;;19.70;5.80;;;;;;;15.42;81.82;100162.27;108144;1288;21997;-69
2023/01/20 00:17:36;;;;;;;20.20;6.30;;;;;;;15.43;81.73;100163.30;108160;1288;21992;-69
2023/01/20 00:20:03;;;;;;;13.90;5.50;;;;;;;15.45;81.53;100168.17;108094;1288;22057;-64
2023/01/20 00:22:28;;;;;;;15.50;4.90;;;;;;;15.48;81.64;100170.02;108064;1288;21998;-69
2023/01/20 00:24:54;;;;;;;19.40;5.20;;;;;;;15.46;81.57;100170.09;107987;1288;21986;-69
2023/01/20 00:27:20;;;;;;;14.70;4.60;;;;;;;15.45;81.68;100171.00;108043;1288;22169;-69
2023/01/20 00:29:45;;;;;;;18.30;4.90;;;;;;;15.44;81.34;100174.22;108054;1288;23756;-63
2023/01/20 00:32:11;;;;;;;15.40;5.40;;;;;;;15.43;80.94;100176.39;108093;1288;21993;-69
2023/01/20 00:34:37;;;;;;;14.50;5.60;;;;;;;15.42;80.64;100182.78;107988;1288;23645;-69
2023/01/20 00:37:02;;;;;;;15.40;5.40;;;;;;;15.30;80.49;100189.04;108077;1288;23685;-63
2023/01/20 00:39:28;;;;;;;18.30;5.90;;;;;;;15.17;80.22;100187.71;108010;1289;22025;-69
2023/01/20 00:41:54;;;;;;;16.30;5.40;;;;;;;15.08;80.63;100188.19;108134;1288;22769;-69
2023/01/20 00:44:19;;;;;;;14.00;5.00;;;;;;;15.06;81.01;100188.77;108093;1288;22452;-69
2023/01/20 00:46:45;;;;;;;12.40;5.70;;;;;;;15.11;80.55;100195.00;108083;1288;21998;-69
2023/01/20 00:49:11;;;;;;;17.60;5.50;;;;;;;15.10;80.28;100197.86;108115;1288;23602;-63
2023/01/20 00:51:36;;;;;;;15.90;5.70;;;;;;;15.01;79.82;100197.97;108125;1288;21989;-63
2023/01/20 00:54:02;;;;;;;16.40;5.80;;;;;;;14.93;79.65;100193.82;108014;1287;22002;-69
2023/01/20 00:56:28;;;;;;;14.30;5.30;;;;;;;14.92;79.97;100196.17;108059;1289;21988;-70
2023/01/20 00:58:56;;;;;;;13.60;5.30;;;;;;;14.91;80.26;100196.73;107961;1289;22010;-70
2023/01/20 05:14:51;;;;;;;19.30;7.80;;;;;;;9.84;100.00;100208.92;107743;1286;550254;-62
2023/01/20 05:17:16;;;;;;;22.60;7.30;;;;;;;12.94;100.00;100198.96;107946;1284;22465;-70
2023/01/20 05:19:42;;;;;;;18.80;7.10;;;;;;;13.40;100.00;100200.27;107969;1289;21989;-70
2023/01/20 05:22:08;;;;;;;18.20;5.20;;;;;;;13.63;100.00;100196.52;107984;1289;21994;-63
2023/01/20 05:24:34;;;;;;;12.20;4.10;;;;;;;13.86;100.00;100199.23;107922;1288;21984;-62
2023/01/20 05:27:01;;;;;;;10.10;4.10;;;;;;;14.08;99.91;100196.80;107838;1287;239453;-69
2023/01/20 05:29:27;;;;;;;11.80;4.20;;;;;;;14.12;97.66;100201.08;108140;1287;22442;-62
2023/01/20 05:31:53;;;;;;;28.50;6.00;;;;;;;14.19;96.25;100206.52;108091;1288;21999;-69
2023/01/20 05:34:19;;;;;;;20.60;4.30;;;;;;;14.25;95.42;100206.52;108127;1288;21989;-64
2023/01/20 05:36:44;;;;;;;26.70;4.20;;;;;;;14.31;94.24;100209.00;108090;1288;21987;-69
2023/01/20 05:39:10;;;;;;;21.90;4.40;;;;;;;14.40;93.39;100211.71;108141;1288;21995;-63
2023/01/20 05:41:35;;;;;;;23.50;5.10;;;;;;;14.53;92.96;100215.21;108107;1287;22057;-68
2023/01/20 05:44:01;;;;;;;40.70;7.00;;;;;;;14.64;93.26;100218.92;108138;1287;21996;-69
2023/01/20 05:46:28;;;;;;;24.60;5.30;;;;;;;14.70;92.68;100223.54;108221;1287;22053;-71
2023/01/20 05:48:54;;;;;;;22.50;4.70;;;;;;;14.68;91.19;100221.63;108174;1287;22313;-63
2023/01/20 05:51:20;;;;;;;16.10;5.30;;;;;;;14.75;91.12;100219.13;108130;1287;22130;-68
2023/01/20 05:53:46;;;;;;;17.30;4.40;;;;;;;14.78;90.20;100217.63;108174;1287;22085;-61
2023/01/20 05:56:14;;;;;;;20.40;4.80;;;;;;;14.80;89.36;100218.96;108139;1287;21999;-69
2023/01/20 05:58:40;;;;;;;20.40;4.70;;;;;;;14.83;88.60;100223.83;108192;1283;21996;-69
2023/01/20 06:01:07;;;;;;;24.30;4.70;;;;;;;14.84;88.65;100228.38;108132;1286;22007;-68
2023/01/20 06:03:33;;;;;;;14.90;4.70;;;;;;;14.88;87.63;100231.09;108112;1287;23705;-69
2023/01/20 06:06:03;;;;;;;11.90;3.80;;;;;;;14.94;87.97;100230.37;108073;1287;21996;-63
2023/01/20 06:08:29;;;;;;;14.60;4.20;;;;;;;15.01;88.12;100234.20;108175;1287;22014;-69
2023/01/20 06:10:54;;;;;;;10.40;4.10;;;;;;;15.08;88.24;100235.20;108101;1287;21976;-63
2023/01/20 06:13:20;;;;;;;13.80;5.30;;;;;;;15.13;88.09;100227.80;108073;1286;23055;-71
2023/01/20 06:15:55;;;;;;;10.40;4.20;;;;;;;15.17;87.90;100227.33;108077;1287;21988;-64
2023/01/20 06:18:22;;;;;;;15.00;5.00;;;;;;;15.24;86.82;100226.20;108187;1287;23152;-62
2023/01/20 06:20:49;;;;;;;11.20;4.50;;;;;;;15.28;85.53;100230.47;108216;1286;21988;-65
2023/01/20 06:23:14;;;;;;;14.50;5.00;;;;;;;15.29;85.21;100233.44;108164;1287;21992;-63
2023/01/20 06:25:40;;;;;;;12.80;4.60;;;;;;;15.27;84.89;100237.40;108147;1287;21990;-64
2023/01/20 06:28:07;;;;;;;11.20;3.80;;;;;;;15.30;85.01;100237.65;108151;1287;22006;-70
2023/01/20 06:30:33;;;;;;;9.90;4.30;;;;;;;15.35;84.61;100236.06;107868;1287;23715;-70
2023/01/20 06:32:59;;;;;;;11.70;5.10;;;;;;;15.42;84.77;100236.54;108139;1287;22029;-68
2023/01/20 06:35:25;;;;;;;11.90;5.00;;;;;;;15.52;85.21;100235.84;108084;1287;22030;-64
2023/01/20 06:37:51;;;;;;;13.80;4.60;;;;;;;15.64;85.48;100233.48;108110;1287;21988;-70
2023/01/20 06:40:16;;;;;;;9.90;3.90;;;;;;;15.66;84.14;100237.30;108131;1287;21989;-69
2023/01/20 06:42:42;;;;;;;8.50;3.70;;;;;;;15.70;84.24;100233.80;108057;1286;22106;-63
2023/01/20 06:45:08;;;;;;;9.80;3.80;;;;;;;15.85;85.46;100241.05;108082;1286;24390;-65
2023/01/20 06:47:35;;;;;;;7.50;3.80;;;;;;;16.00;86.08;100242.65;108180;1287;21976;-66
2023/01/20 06:50:01;;;;;;;11.50;4.50;;;;;;;16.10;85.33;100244.93;107950;1287;22039;-65
2023/01/20 06:52:27;;;;;;;12.80;4.90;;;;;;;16.21;84.61;100248.96;108149;1286;22999;-70
2023/01/20 06:54:52;;;;;;;10.00;4.50;;;;;;;16.32;84.07;100253.33;108055;1287;21996;-70
2023/01/20 06:57:18;;;;;;;9.60;4.40;;;;;;;16.43;83.25;100253.60;107996;1287;22001;-65
2023/01/20 06:59:44;;;;;;;10.30;3.90;;;;;;;16.58;84.17;100255.48;108000;1287;21989;-64
2023/01/20 07:02:11;;;;;;;9.20;4.40;;;;;;;16.72;83.67;100249.47;108039;1287;22003;-64
2023/01/20 07:04:37;;;;;;;13.20;4.70;;;;;;;16.81;82.85;100248.75;107974;1288;22071;-67
2023/01/20 07:07:02;;;;;;;10.70;4.70;;;;;;;16.92;82.71;100250.98;108018;1288;23621;-67
2023/01/20 07:09:28;;;;;;;13.10;4.00;;;;;;;17.06;81.72;100249.36;108131;1286;21997;-63
2023/01/20 07:11:53;;;;;;;9.80;4.20;;;;;;;17.08;81.82;100251.96;108108;1286;21994;-65
2023/01/20 07:14:19;;;;;;;10.70;4.80;;;;;;;17.07;80.92;100252.33;108118;1287;22463;-63
2023/01/20 07:16:45;;;;;;;11.10;4.80;;;;;;;17.05;79.78;100246.57;108129;1287;22723;-64
2023/01/20 07:19:11;;;;;;;11.80;5.00;;;;;;;17.04;78.50;100248.92;108096;1287;21985;-65
2023/01/20 07:21:36;;;;;;;10.60;4.00;;;;;;;17.04;78.65;100259.17;108107;1287;21982;-63
2023/01/20 07:24:02;;;;;;;9.80;3.90;;;;;;;17.10;78.55;100255.77;108121;1287;21994;-64
2023/01/20 07:26:28;;;;;;;7.50;3.50;;;;;;;17.04;78.54;100258.15;108099;1287;21988;-65
2023/01/20 07:28:54;;;;;;;11.30;4.30;;;;;;;16.99;77.02;100258.52;108082;1288;21989;-66
2023/01/20 07:31:23;;;;;;;9.70;3.10;;;;;;;16.95;76.22;100263.80;108110;1287;22000;-67
2023/01/20 07:33:49;;;;;;;11.50;3.80;;;;;;;16.94;75.50;100260.13;108116;1286;21987;-65
2023/01/20 07:36:15;;;;;;;9.90;4.30;;;;;;;17.12;76.68;100261.71;108065;1287;21984;-65
2023/01/20 07:38:41;;;;;;;14.20;5.00;;;;;;;17.25;77.93;100262.95;108098;1287;21995;-67
2023/01/20 07:41:14;;;;;;;9.20;4.80;;;;;;;17.45;78.45;100256.24;108095;1287;22009;-66
2023/01/20 07:43:42;;;;;;;10.70;3.90;;;;;;;17.60;78.14;100250.46;108134;1287;22936;-66
2023/01/20 07:46:08;;;;;;;9.40;4.20;;;;;;;17.67;76.64;100250.52;108160;1288;22005;-67
2023/01/20 07:48:34;;;;;;;10.50;4.50;;;;;;;17.71;75.62;100252.83;108100;1288;21992;-66
2023/01/20 07:51:11;;;;;;;8.00;4.10;;;;;;;17.70;75.18;100253.77;108126;1288;21987;-65
2023/01/20 07:53:38;;;;;;;9.60;5.00;;;;;;;17.60;73.22;100251.16;108139;1288;22000;-66
2023/01/20 07:56:09;;;;;;;9.40;4.40;;;;;;;17.60;72.28;100246.75;108152;1288;22004;-66
2023/01/20 07:58:35;;;;;;;15.20;5.00;;;;;;;17.61;70.65;100243.68;108172;1288;21996;-64
2023/01/20 08:01:08;;;;;;;10.10;4.90;;;;;;;17.62;69.01;100245.95;108083;1280;21992;-63
2023/01/20 08:03:34;;;;;;;8.50;4.40;;;;;;;17.65;68.36;100246.34;108126;1288;21996;-65
2023/01/20 08:06:07;;;;;;;8.50;4.50;;;;;;;17.73;70.00;100246.00;108079;1287;21991;-68
2023/01/20 08:08:34;;;;;;;8.80;3.90;;;;;;;17.80;68.80;100241.23;108182;1286;21996;-68
2023/01/20 08:11:00;;;;;;;10.80;4.20;;;;;;;17.92;68.68;100238.41;108170;1286;22001;-68
2023/01/20 08:13:26;;;;;;;9.50;4.20;;;;;;;17.99;67.42;100239.17;108136;1288;21981;-64
2023/01/20 08:15:52;;;;;;;11.20;4.40;;;;;;;18.15;68.77;100241.66;108098;1288;21985;-66
2023/01/20 08:18:18;;;;;;;6.90;3.90;;;;;;;18.29;67.40;100242.30;108046;1287;21984;-67
2023/01/20 08:20:44;;;;;;;10.10;3.00;;;;;;;18.36;65.10;100237.51;108075;1287;22845;-65
2023/01/20 08:23:09;;;;;;;9.00;3.40;;;;;;;18.52;64.41;100241.73;108082;1288;22012;-66
2023/01/20 08:25:35;;;;;;;9.20;3.20;;;;;;;18.68;62.38;100245.79;108093;1287;21999;-67
2023/01/20 08:28:02;;;;;;;7.90;2.80;;;;;;;18.72;59.50;100243.45;108081;1286;22032;-68
2023/01/20 08:30:28;;;;;;;8.80;2.60;;;;;;;18.88;59.67;100243.23;108113;1286;24309;-66
2023/01/20 08:32:54;;;;;;;4.40;2.00;;;;;;;19.04;59.62;100242.27;108297;1286;22714;-67
2023/01/20 08:35:25;;;;;;;8.30;2.90;;;;;;;19.15;58.97;100241.17;108230;1286;23629;-67
2023/01/20 08:37:51;;;;;;;5.50;2.40;;;;;;;19.21;58.71;100238.75;108247;1287;21995;-68
2023/01/20 08:40:18;;;;;;;6.80;3.00;;;;;;;19.27;58.27;100237.73;108205;1287;22015;-69
2023/01/20 08:42:44;;;;;;;7.00;2.90;;;;;;;19.28;57.98;100234.84;108219;1286;22147;-66
2023/01/20 08:45:10;;;;;;;6.10;3.30;;;;;;;19.39;57.82;100234.13;108256;1287;23631;-66
2023/01/20 08:47:43;;;;;;;6.50;2.60;;;;;;;19.48;57.77;100232.39;108094;1287;22037;-67
2023/01/20 08:50:11;;;;;;;7.20;2.40;;;;;;;19.49;55.57;100234.29;108160;1287;23773;-66
2023/01/20 08:52:41;;;;;;;8.00;2.70;;;;;;;19.51;54.61;100237.27;108158;1287;22003;-66
2023/01/20 08:55:08;;;;;;;5.40;2.70;;;;;;;19.51;54.59;100234.92;108082;1286;23423;-67
2023/01/20 08:57:34;;;;;;;9.10;3.20;;;;;;;19.53;55.35;100237.51;108085;1287;22567;-66
2023/01/20 09:00:04;;;;;;;8.00;3.70;;;;;;;19.48;56.05;100235.45;108070;1287;23717;-69
2023/01/20 09:02:32;;;;;;;5.30;2.70;;;;;;;19.45;54.84;100236.30;107417;1287;1002602;-68
2023/01/20 09:04:59;;;;;;;6.20;2.80;;;;;;;19.56;55.33;100227.00;108079;1287;23050;-67
2023/01/20 09:07:25;;;;;;;7.10;2.90;;;;;;;19.78;57.21;100223.20;107996;1287;21993;-66
2023/01/20 09:09:52;;;;;;;8.40;3.20;;;;;;;19.72;54.66;100223.02;108103;1286;22032;-66
2023/01/20 09:12:18;;;;;;;7.20;3.10;;;;;;;19.88;53.62;100217.15;108175;1287;23778;-66
2023/01/20 09:14:44;;;;;;;8.10;3.00;;;;;;;19.93;52.44;100213.73;108003;1286;21973;-67
2023/01/20 09:17:09;;;;;;;6.00;2.60;;;;;;;19.94;52.98;100217.77;108034;1287;21986;-66
2023/01/20 09:19:35;;;;;;;9.70;2.90;;;;;;;20.15;54.43;100213.77;108169;1283;23634;-67
2023/01/20 09:22:02;;;;;;;6.90;3.40;;;;;;;20.29;54.32;100203.76;108124;1287;21995;-68
2023/01/20 09:24:28;;;;;;;6.90;3.20;;;;;;;20.46;54.71;100193.70;108033;1283;22035;-68
2023/01/20 09:26:55;;;;;;;6.40;2.90;;;;;;;20.56;54.14;100190.84;108104;1287;22002;-69
2023/01/20 09:29:22;;;;;;;8.30;3.50;;;;;;;20.71;53.69;100185.15;108171;1287;22013;-67
2023/01/20 09:31:50;;;;;;;10.40;4.00;;;;;;;20.78;53.12;100182.61;108228;1285;23389;-68
2023/01/20 09:34:23;;;;;;;6.50;2.80;;;;;;;20.83;51.62;100179.86;108157;1287;22004;-69
2023/01/20 09:36:50;;;;;;;7.40;3.50;;;;;;;20.87;50.52;100172.88;108029;1287;21987;-70
2023/01/20 09:45:05;;;;;;;7.20;3.20;;;;;;;20.85;51.07;100165.33;108084;1287;21986;-70
2023/01/20 09:47:32;;;;;;;6.90;3.10;;;;;;;20.90;50.52;100167.36;108059;1287;22004;-68
2023/01/20 09:53:03;;;;;;;7.90;3.10;;;;;;;20.67;52.52;100167.77;108081;1287;22080;-69
2023/01/20 09:55:47;;;;;;;5.90;3.10;;;;;;;20.62;52.13;100159.64;108242;1287;21995;-70
2023/01/20 09:58:24;;;;;;;7.10;3.10;;;;;;;20.53;51.40;100155.88;108079;1287;22003;-69
2023/01/20 10:01:11;;;;;;;7.30;2.90;;;;;;;20.50;51.28;100156.06;108081;1287;23703;-68
2023/01/20 10:03:55;;;;;;;9.70;3.30;;;;;;;20.45;51.34;100154.36;107852;1287;21999;-69
2023/01/20 10:06:25;;;;;;;6.80;3.00;;;;;;;20.48;51.20;100156.17;108047;1287;22176;-69
2023/01/20 10:09:16;;;;;;;6.50;3.20;;;;;;;20.48;51.47;100156.52;108152;1287;23153;-69
2023/01/20 10:11:42;;;;;;;;;;;;;;;20.50;52.29;100155.51;108125;1287;21984;-69
2023/01/20 10:14:14;;;;;;;7.10;2.80;;;;;;;20.50;52.16;100155.86;108039;1287;23276;-69
2023/01/20 10:16:47;;;;;;;7.70;3.30;;;;;;;20.46;51.62;100146.83;108147;1287;21979;-70
2023/01/20 10:19:17;;;;;;;6.90;3.80;;;;;;;20.54;53.06;100138.19;108133;1286;21989;-68
2023/01/20 10:21:47;;;;;;;11.00;4.80;;;;;;;20.55;53.36;100137.77;108057;1276;21986;-69
2023/01/20 10:24:18;;;;;;;8.30;4.30;;;;;;;20.58;53.15;100142.39;108119;1275;22101;-69
2023/01/20 10:26:53;;;;;;;;;;;;;;;20.62;52.35;100145.20;108189;1286;22008;-69
2023/01/20 10:29:47;;;;;;;9.00;3.80;;;;;;;20.64;52.01;100144.93;108069;1287;23631;-67
2023/01/20 10:32:15;;;;;;;8.00;3.90;;;;;;;20.69;52.54;100152.86;107998;1287;22247;-67
2023/01/20 10:34:45;;;;;;;8.30;3.90;;;;;;;20.59;51.69;100157.85;108060;1283;23043;-67
2023/01/20 10:37:14;;;;;;;10.00;3.40;;;;;;;20.54;52.75;100158.30;108030;1286;22056;-67
2023/01/20 10:39:51;;;;;;;11.70;3.60;;;;;;;20.49;53.05;100158.61;108149;1287;21990;-67
2023/01/20 10:42:17;;;;;;;8.00;3.50;;;;;;;20.43;53.22;100156.84;108041;1287;21987;-67
2023/01/20 10:44:43;;;;;;;6.60;3.40;;;;;;;20.40;53.75;100153.61;107932;1287;23067;-67
2023/01/20 10:47:17;;;;;;;9.80;3.90;;;;;;;20.30;52.73;100152.54;107990;1287;22022;-67
2023/01/20 10:50:22;;;;;;;8.90;4.30;;;;;;;20.11;51.82;100151.86;108111;1287;22027;-66
2023/01/20 10:53:06;;;;;;;9.10;3.90;;;;;;;20.07;52.57;100146.19;107807;1287;21992;-67
2023/01/20 10:55:32;;;;;;;11.30;3.90;;;;;;;20.15;54.74;100144.66;108058;1287;22012;-67
2023/01/20 10:58:15;;;;;;;8.20;3.30;;;;;;;20.21;55.42;100148.05;108032;1287;21994;-66
2023/01/20 11:00:41;;;;;;;9.30;4.20;;;;;;;20.19;55.43;100147.11;108006;1287;21991;-66
2023/01/20 11:03:09;;;;;;;11.30;4.10;;;;;;;20.08;54.64;100150.02;108028;1286;21986;-66
2023/01/20 11:05:38;;;;;;;12.50;3.60;;;;;;;19.95;54.81;100147.52;108034;1287;21991;-66
2023/01/20 11:08:15;;;;;;;11.00;3.80;;;;;;;19.84;54.93;100139.92;108097;1280;21992;-67
2023/01/20 11:10:41;;;;;;;8.70;3.50;;;;;;;19.75;55.56;100137.55;108104;1287;22044;-67
2023/01/20 11:13:07;;;;;;;7.90;4.00;;;;;;;19.69;56.03;100135.04;108133;1287;22027;-66
2023/01/20 11:15:36;;;;;;;14.30;4.20;;;;;;;19.59;56.49;100138.05;108121;1287;21993;-67
2023/01/20 11:18:14;;;;;;;8.70;3.80;;;;;;;19.53;56.83;100138.36;108126;1286;22001;-67
2023/01/20 11:20:44;;;;;;;7.60;3.80;;;;;;;19.50;57.49;100131.94;108158;1287;21997;-67
2023/01/20 11:23:51;;;;;;;7.80;4.20;;;;;;;19.42;57.00;100125.80;108178;1287;22006;-67
2023/01/20 11:26:20;;;;;;;11.50;4.30;;;;;;;19.34;57.02;100123.73;107581;1294;22002;-66
2023/01/20 11:28:50;;;;;;;8.00;4.10;;;;;;;19.35;57.59;100127.40;108075;1287;22985;-66
2023/01/20 11:31:15;;;;;;;9.40;3.90;;;;;;;19.37;58.28;100125.73;108169;1287;23849;-66
2023/01/20 11:33:58;;;;;;;9.00;3.60;;;;;;;19.33;57.93;100127.85;108120;1287;22001;-66
2023/01/20 11:36:25;;;;;;;9.00;4.70;;;;;;;19.24;57.41;100128.70;108086;1287;21989;-66
2023/01/20 11:38:52;;;;;;;8.10;3.90;;;;;;;19.14;57.07;100121.76;108092;1287;21992;-66
2023/01/20 11:41:19;;;;;;;12.10;4.40;;;;;;;19.11;57.96;100121.56;108049;1287;22025;-67
2023/01/20 11:43:45;;;;;;;10.60;4.20;;;;;;;19.04;57.76;100119.61;108163;1287;22095;-66
2023/01/20 11:46:24;;;;;;;9.40;3.80;;;;;;;18.95;57.72;100118.78;107850;1287;22170;-66
2023/01/20 11:49:23;;;;;;;9.00;3.90;;;;;;;18.90;57.98;100117.05;108115;1283;23612;-66
2023/01/20 11:51:56;;;;;;;11.60;4.10;;;;;;;18.84;57.80;100115.59;108260;1287;23716;-66
2023/01/20 11:54:24;;;;;;;;;;;;;;;18.81;57.98;100110.02;108104;1287;22899;-66
2023/01/20 11:56:56;;;;;;;11.00;3.80;;;;;;;18.80;58.72;100109.90;108082;1287;22453;-66
2023/01/20 11:59:27;;;;;;;7.90;3.80;;;;;;;18.67;59.10;100109.32;108100;1287;23073;-67
2023/01/20 12:01:56;;;;;;;11.50;4.40;;;;;;;18.67;60.52;100109.01;108147;1287;21989;-67
2023/01/20 12:04:44;;;;;;;8.40;3.70;;;;;;;18.67;60.94;100109.88;108089;1287;22219;-67
2023/01/20 12:07:18;;;;;;;11.20;4.10;;;;;;;18.74;61.29;100112.17;108071;1287;21980;-66
2023/01/20 12:09:49;;;;;;;8.40;3.40;;;;;;;18.76;60.66;100112.95;108149;1287;22030;-67
2023/01/20 12:12:27;;;;;;;9.50;4.00;;;;;;;18.80;60.39;100107.61;108315;1287;21983;-67
2023/01/20 12:15:15;;;;;;;10.30;3.60;;;;;;;18.79;60.52;100109.64;108096;1287;22019;-67
2023/01/20 12:17:58;;;;;;;11.30;4.30;;;;;;;18.79;60.56;100110.52;108077;1287;23049;-67
2023/01/20 12:20:29;;;;;;;8.50;4.60;;;;;;;18.82;61.33;100110.55;108042;1285;22938;-67
2023/01/20 12:23:20;;;;;;;11.70;4.00;;;;;;;18.90;63.25;100115.29;108072;1287;21987;-67
2023/01/20 12:25:59;;;;;;;11.50;4.60;;;;;;;19.00;63.55;100117.64;108051;1287;21987;-67
2023/01/20 12:28:42;;;;;;;16.10;5.20;;;;;;;19.07;63.84;100110.03;108037;1287;23726;-68
2023/01/20 12:31:11;;;;;;;15.10;6.60;;;;;;;19.12;64.17;100105.29;108108;1287;23711;-67
2023/01/20 12:33:39;;;;;;;17.80;6.40;;;;;;;19.16;64.14;100103.33;108149;1287;21984;-68
2023/01/20 12:36:34;;;;;;;13.30;5.50;;;;;;;19.16;63.95;100102.77;108194;1283;21993;-66
2023/01/20 12:39:16;;;;;;;11.50;5.60;;;;;;;19.12;63.73;100102.62;108146;1287;21987;-66
2023/01/20 12:42:11;;;;;;;11.60;5.70;;;;;;;19.07;63.65;100102.19;107997;1287;22029;-66
2023/01/20 12:44:46;;;;;;;11.70;5.40;;;;;;;19.07;63.21;100101.85;109473;1287;21983;-65
2023/01/20 12:47:31;;;;;;;14.00;5.70;;;;;;;18.94;63.18;100101.61;109960;1287;23725;-66
2023/01/20 12:50:02;;;;;;;14.80;5.50;;;;;;;18.90;63.04;100100.16;108016;1287;23655;-65
2023/01/20 12:52:45;;;;;;;11.30;5.80;;;;;;;18.87;63.01;100101.92;108109;1286;22007;-66
2023/01/20 12:55:28;;;;;;;13.80;6.30;;;;;;;18.80;62.97;100107.80;108151;1287;21992;-65
2023/01/20 12:57:59;;;;;;;14.90;7.00;;;;;;;18.71;63.10;100110.20;108172;1287;21999;-66
2023/01/20 13:00:39;;;;;;;13.20;6.00;;;;;;;18.64;63.00;100106.98;108097;1287;21995;-66
2023/01/20 13:03:42;;;;;;;11.20;5.20;;;;;;;18.56;62.83;100104.73;108112;1282;21958;-65
2023/01/20 13:06:49;;;;;;;13.10;5.40;;;;;;;18.46;62.53;100099.01;108129;1287;22787;-66
2023/01/20 13:09:44;;;;;;;14.70;6.90;;;;;;;18.34;62.10;100103.35;108089;1288;21999;-65
2023/01/20 13:12:14;;;;;;;12.50;6.70;;;;;;;18.17;61.77;100110.69;108002;1288;23654;-67
2023/01/20 13:14:44;;;;;;;13.50;6.60;;;;;;;18.05;62.12;100110.23;109043;1287;21988;-64
2023/01/20 13:17:23;;;;;;;16.60;7.00;;;;;;;17.92;61.99;100100.15;109430;1287;21978;-67
2023/01/20 13:19:49;;;;;;;14.10;6.00;;;;;;;17.79;61.91;100096.69;108143;1287;21987;-67
2023/01/20 13:22:19;;;;;;;16.00;6.50;;;;;;;17.62;60.95;100090.55;107819;1288;21986;-66
2023/01/20 13:24:48;;;;;;;15.40;6.80;;;;;;;17.43;60.99;100089.62;108252;1287;23635;-66
2023/01/20 13:27:28;;;;;;;18.70;7.50;;;;;;;17.31;62.03;100096.52;108113;1288;22173;-66
2023/01/20 13:29:58;;;;;;;13.40;7.10;;;;;;;17.19;61.19;100096.73;108100;1287;22035;-66
2023/01/20 13:32:33;;;;;;;;;;;;;;;17.03;61.41;100098.80;108237;1288;21993;-66
2023/01/20 13:35:19;;;;;;;15.50;6.70;;;;;;;16.89;61.55;100100.45;108071;1287;23612;-65
2023/01/20 13:37:53;;;;;;;19.40;7.70;;;;;;;16.81;62.27;100101.50;108059;1287;21996;-65
2023/01/20 13:40:36;;;;;;;15.50;7.50;;;;;;;16.72;61.95;100105.45;107427;1288;1003030;-66
2023/01/20 13:43:24;;;;;;;19.90;9.00;;;;;;;16.56;61.18;100110.68;108106;1282;21993;-65
2023/01/20 13:46:10;;;;;;;17.40;8.40;;;;;;;16.36;60.86;100114.86;108051;1287;21987;-67
2023/01/20 13:48:37;;;;;;;16.70;8.10;;;;;;;16.20;61.24;100116.75;107955;1287;21999;-66
2023/01/20 13:51:14;;;;;;;18.10;9.80;;;;;;;16.11;61.91;100119.41;108100;1287;21998;-66
2023/01/20 13:53:41;;;;;;;21.50;10.60;;;;;;;16.05;62.37;100113.99;108071;1288;21992;-66
2023/01/20 13:56:26;;;;;;;19.40;10.50;;;;;;;16.02;62.77;100110.20;108610;1287;22033;-67
2023/01/20 13:58:58;;;;;;;16.70;9.50;;;;;;;16.03;63.64;100106.80;108138;1288;21983;-66
2023/01/20 14:01:25;;;;;;;21.20;11.20;;;;;;;16.02;63.13;100105.05;108066;1288;22165;-68
2023/01/20 14:04:19;;;;;;;18.60;10.60;;;;;;;15.98;62.61;100106.81;108163;1287;23725;-68
2023/01/20 14:06:49;;;;;;;25.00;11.60;;;;;;;15.93;62.69;100105.04;108158;1286;21998;-67
2023/01/20 14:09:22;;;;;;;22.30;11.60;;;;;;;15.88;62.83;100097.11;108146;1287;21986;-67
2023/01/20 14:11:53;;;;;;;22.00;12.10;;;;;;;15.80;62.73;100090.32;108141;1287;21986;-68
2023/01/20 14:14:20;;;;;;;23.80;11.70;;;;;;;15.77;63.25;100088.50;108115;1287;22117;-66
2023/01/20 14:16:46;;;;;;;24.40;13.30;;;;;;;15.71;63.00;100086.40;106618;1279;1002725;-67
2023/01/20 14:19:28;;;;;;;19.70;11.00;;;;;;;15.62;63.16;100081.77;108117;1287;22005;-66
2023/01/20 14:21:56;;;;;;;22.90;12.30;;;;;;;15.54;63.35;100086.53;108143;1287;22002;-66
2023/01/20 14:24:35;;;;;;;17.50;10.40;;;;;;;15.48;63.49;100096.63;108147;1286;23110;-66
2023/01/20 14:27:06;;;;;;;24.40;10.40;;;;;;;15.43;63.69;100096.84;108106;1280;21988;-65
2023/01/20 14:29:34;;;;;;;22.90;10.50;;;;;;;15.38;63.95;100098.09;108101;1288;21997;-66
2023/01/20 14:32:00;;;;;;;21.40;11.20;;;;;;;15.32;63.57;100094.95;108195;1287;22018;-67
2023/01/20 14:34:31;;;;;;;18.60;11.30;;;;;;;15.27;63.96;100087.16;108073;1288;21988;-66
2023/01/20 14:36:59;;;;;;;18.30;9.50;;;;;;;15.25;63.90;100086.53;108157;1288;21991;-70
2023/01/20 14:39:26;;;;;;;23.80;10.50;;;;;;;15.16;63.46;100088.95;108235;1287;23058;-65
2023/01/20 14:41:53;;;;;;;20.50;10.70;;;;;;;15.10;63.67;100081.92;108083;1287;21989;-69
2023/01/20 14:44:23;;;;;;;21.10;10.40;;;;;;;15.03;63.73;100081.64;108136;1287;21993;-68
2023/01/20 14:46:51;;;;;;;22.70;10.70;;;;;;;14.98;64.00;100083.95;108128;1288;21992;-68
2023/01/20 14:49:17;;;;;;;21.50;11.30;;;;;;;14.94;64.08;100083.02;108113;1280;21992;-69
2023/01/20 14:51:43;;;;;;;21.70;10.50;;;;;;;14.91;64.31;100080.13;108120;1287;23174;-69
2023/01/20 14:54:42;;;;;;;22.60;11.70;;;;;;;14.92;64.78;100082.38;106632;1282;1002994;-68
2023/01/20 14:57:24;;;;;;;19.40;10.20;;;;;;;14.94;64.91;100084.25;108049;1287;21999;-66
2023/01/20 15:00:14;;;;;;;22.20;11.30;;;;;;;14.94;65.04;100087.98;108171;1287;22015;-68
2023/01/20 15:02:48;;;;;;;23.70;11.60;;;;;;;14.94;65.19;100089.04;108135;1288;22787;-65
2023/01/20 15:05:30;;;;;;;26.90;11.70;;;;;;;14.91;65.35;100090.04;108119;1288;21991;-69
2023/01/20 15:08:17;;;;;;;24.00;10.90;;;;;;;14.87;65.39;100098.45;108144;1286;22329;-69
2023/01/20 15:10:43;;;;;;;23.90;12.10;;;;;;;14.84;65.34;100110.74;108109;1286;23809;-65
2023/01/20 15:13:25;;;;;;;21.30;11.60;;;;;;;14.79;65.15;100116.23;108192;1287;21992;-68
2023/01/20 15:15:51;;;;;;;24.80;11.50;;;;;;;14.71;65.29;100115.25;108175;1287;22215;-67
2023/01/20 15:18:18;;;;;;;282.50;185.30;;;;;;;14.68;65.71;100115.67;108100;1287;24323;-68
2023/01/20 15:20:47;;;;;;;47.70;25.00;;;;;;;14.70;66.25;100113.66;108089;1288;23634;-69
2023/01/20 15:23:36;;;;;;;41.80;19.40;;;;;;;14.73;66.03;100110.41;108180;1283;23746;-63
2023/01/20 15:26:25;;;;;;;25.00;14.00;;;;;;;14.73;65.52;100105.46;108090;1287;22012;-68
2023/01/20 15:28:51;;;;;;;22.10;11.90;;;;;;;14.69;65.33;100104.52;108056;1285;21966;-63
2023/01/20 15:31:17;;;;;;;135.20;99.10;;;;;;;14.66;65.59;100106.20;108097;1287;21995;-66
2023/01/20 15:33:43;;;;;;;35.00;23.50;;;;;;;14.73;67.23;100106.52;108162;1287;21992;-63
2023/01/20 15:36:23;;;;;;;35.50;17.00;;;;;;;14.77;66.52;100104.46;108038;1288;21996;-63
2023/01/20 15:38:49;;;;;;;22.70;13.60;;;;;;;14.75;65.78;100105.07;108017;1287;21990;-63
2023/01/20 15:41:16;;;;;;;25.10;12.80;;;;;;;14.70;65.20;100101.14;108086;1287;21995;-69
2023/01/20 15:43:44;;;;;;;20.90;12.60;;;;;;;14.63;64.94;100105.23;108059;1287;23154;-65
2023/01/20 15:46:16;;;;;;;21.70;12.50;;;;;;;14.56;65.01;100107.40;108234;1287;21998;-64
2023/01/20 15:48:43;;;;;;;21.20;13.30;;;;;;;14.52;65.45;100107.88;108168;1286;21987;-69
2023/01/20 15:51:12;;;;;;;22.50;13.60;;;;;;;14.53;65.70;100105.77;108171;1287;21994;-69